Time;durP1;ratioP1;P1;durP2;ratioP2;P2;SDS_P1;SDS_P2;PMS_P1;PMS_P2;Temp;Humidity;BMP_temperature;BMP_pressure;BME280_temperature;BME280_humidity;BME280_pressure;Samples;Min_cycle;Max_cycle;Signal;HPM_P1;HPM_P2
2022/02/07 00:00:07;;;;;;;0.40;0.30;;;7.10;1.00;;;;;;5130822;27;20434;-61
2022/02/07 00:03:03;;;;;;;0.40;0.40;;;;;;;;;;5128309;27;21019;-61
2022/02/07 00:05:28;;;;;;;0.60;0.60;;;6.80;1.00;;;;;;5126771;27;20438;-61
2022/02/07 00:07:55;;;;;;;2.80;0.50;;;6.80;1.00;;;;;;5129993;27;20442;-64
2022/02/07 00:10:21;;;;;;;1.77;0.43;;;5.80;1.00;;;;;;5126008;27;20435;-67
2022/02/07 00:12:47;;;;;;;0.93;0.50;;;;;;;;;;5123197;27;20453;-65
2022/02/07 00:15:14;;;;;;;0.40;0.30;;;4.60;1.00;;;;;;5125896;27;20484;-64
2022/02/07 00:17:40;;;;;;;1.00;0.30;;;4.50;1.00;;;;;;5131950;27;20443;-64
2022/02/07 00:20:12;;;;;;;0.70;0.20;;;4.60;1.00;;;;;;5126077;27;20444;-65
2022/02/07 00:22:38;;;;;;;0.40;0.30;;;;;;;;;;5131963;27;20439;-65
2022/02/07 00:25:04;;;;;;;0.50;0.40;;;4.60;1.00;;;;;;5128912;27;20511;-65
2022/02/07 00:27:30;;;;;;;1.47;0.30;;;4.80;1.00;;;;;;5125862;27;20533;-64
2022/02/07 00:29:55;;;;;;;0.40;0.37;;;4.70;1.00;;;;;;5129771;27;20535;-63
2022/02/07 00:32:24;;;;;;;0.30;0.23;;;4.60;96.70;;;;;;5128470;27;20185;-63
2022/02/07 00:34:49;;;;;;;0.93;0.50;;;4.60;99.90;;;;;;5129520;27;20208;-62
2022/02/07 00:37:15;;;;;;;0.50;0.40;;;4.40;99.90;;;;;;5128524;27;20546;-62
2022/02/07 00:39:50;;;;;;;1.17;0.40;;;4.30;99.90;;;;;;5128303;27;20186;-63
2022/02/07 00:42:53;;;;;;;0.50;0.40;;;;;;;;;;5120601;27;20196;-63
2022/02/07 00:45:24;;;;;;;0.60;0.37;;;4.40;99.90;;;;;;5125768;27;20494;-63
2022/02/07 00:47:49;;;;;;;1.00;0.30;;;4.50;99.90;;;;;;5129810;27;20454;-64
2022/02/07 00:50:15;;;;;;;0.30;0.27;;;4.60;99.90;;;;;;5112206;27;20474;-63
2022/02/07 00:52:41;;;;;;;0.67;0.50;;;;;;;;;;5125653;27;20242;-65
2022/02/07 00:55:07;;;;;;;0.50;0.40;;;4.70;99.90;;;;;;5128037;27;20204;-64
2022/02/07 00:57:33;;;;;;;0.43;0.43;;;;;;;;;;5127813;27;20925;-64
2022/02/07 00:59:59;;;;;;;0.60;0.60;;;;;;;;;;5127378;27;20445;-64
2022/02/07 01:02:24;;;;;;;0.40;0.40;;;4.80;99.90;;;;;;5126231;27;20438;-64
2022/02/07 01:04:50;;;;;;;0.50;0.50;;;4.80;99.90;;;;;;5112225;27;20445;-64
2022/02/07 01:07:15;;;;;;;0.70;0.70;;;4.90;99.90;;;;;;5128192;27;20221;-64
2022/02/07 01:09:45;;;;;;;0.80;0.80;;;4.90;99.90;;;;;;5106866;27;20212;-65
2022/02/07 01:12:20;;;;;;;0.60;0.60;;;4.90;99.90;;;;;;5126603;27;20177;-65
2022/02/07 01:14:57;;;;;;;0.87;0.87;;;4.90;99.90;;;;;;5122872;27;20985;-65
2022/02/07 01:53:54;;;;;;;2.50;0.60;;;;;;;;;;5126200;27;20470;-61
2022/02/07 01:55:42;;;;;;;1.23;0.67;;;4.30;99.90;;;;;;5121072;27;20469;-62
2022/02/07 01:58:09;;;;;;;2.23;0.80;;;4.30;99.90;;;;;;5127920;27;20442;-62
2022/02/07 02:00:37;;;;;;;2.23;0.70;;;4.40;99.90;;;;;;5125328;27;20477;-61
2022/02/07 02:03:03;;;;;;;2.30;0.47;;;4.40;99.90;;;;;;5127385;27;20432;-61
2022/02/07 02:05:36;;;;;;;0.63;0.50;;;4.60;99.90;;;;;;5125633;27;20477;-62
2022/02/07 02:08:06;;;;;;;1.20;0.80;;;4.40;99.90;;;;;;5128231;27;20499;-61
2022/02/07 02:10:32;;;;;;;8.20;1.00;;;4.40;99.90;;;;;;5123994;27;20442;-62
2022/02/07 02:13:08;;;;;;;1.77;0.70;;;4.40;99.90;;;;;;5123373;27;20438;-62
2022/02/07 02:37:42;;;;;;;1.60;0.67;;;4.70;1.00;;;;;;5123955;27;20881;-63
2022/02/07 02:47:33;;;;;;;1.30;0.83;;;;;;;;;;5127774;28;20461;-64
2022/02/07 02:50:42;;;;;;;1.37;0.80;;;;;;;;;;5106323;28;20442;-64
2022/02/07 02:52:47;;;;;;;0.83;0.63;;;4.80;1.00;;;;;;5121270;28;20438;-65
2022/02/07 02:55:13;;;;;;;1.80;0.80;;;4.80;1.00;;;;;;5129322;28;20458;-65
2022/02/07 02:57:39;;;;;;;1.97;0.50;;;4.80;1.00;;;;;;5129218;27;20177;-65
2022/02/07 03:00:05;;;;;;;2.87;0.87;;;4.70;1.00;;;;;;5122623;27;20177;-65
2022/02/07 03:02:31;;;;;;;0.73;0.73;;;4.70;1.00;;;;;;5121827;28;20431;-66
2022/02/07 03:04:57;;;;;;;1.43;0.60;;;4.60;1.00;;;;;;5128847;27;20992;-65
2022/02/07 03:07:24;;;;;;;2.10;0.60;;;4.70;1.00;;;;;;5128867;28;20638;-66
2022/02/07 03:09:50;;;;;;;1.03;0.80;;;7.70;1.00;;;;;;5112012;28;20225;-66
2022/02/07 03:12:18;;;;;;;1.93;0.70;;;;;;;;;;5105773;28;20800;-66
2022/02/07 03:14:45;;;;;;;2.30;0.80;;;4.70;1.00;;;;;;5121757;28;20459;-66
2022/02/07 03:17:12;;;;;;;2.10;1.13;;;4.80;1.00;;;;;;5125301;28;20750;-66
2022/02/07 03:19:37;;;;;;;3.63;0.87;;;4.80;1.00;;;;;;5109800;27;20438;-68
2022/02/07 03:22:03;;;;;;;4.47;1.00;;;4.80;1.00;;;;;;5124210;28;20428;-68
2022/02/07 03:24:29;;;;;;;2.07;0.50;;;4.80;1.00;;;;;;5108500;28;20221;-69
2022/02/07 03:26:54;;;;;;;0.90;0.80;;;4.90;1.00;;;;;;5125724;28;20455;-69
2022/02/07 03:29:20;;;;;;;4.80;0.90;;;;;;;;;;5123057;28;20226;-68
2022/02/07 03:31:46;;;;;;;0.97;0.60;;;5.00;1.00;;;;;;5124678;28;20256;-68
2022/02/07 03:34:11;;;;;;;1.60;0.93;;;4.90;1.00;;;;;;5121342;27;20439;-68
2022/02/07 03:36:38;;;;;;;2.03;0.70;;;4.80;1.00;;;;;;5127694;28;20185;-67
2022/02/07 03:39:05;;;;;;;2.43;0.63;;;4.60;1.00;;;;;;5125492;28;20186;-66
2022/02/07 03:41:31;;;;;;;1.30;0.50;;;4.50;1.00;;;;;;5121807;28;20446;-66
2022/02/07 03:43:57;;;;;;;0.77;0.50;;;4.60;1.00;;;;;;5125709;27;20958;-66
2022/02/07 03:46:22;;;;;;;1.40;0.60;;;4.50;1.00;;;;;;5128319;27;20244;-65
2022/02/07 03:48:49;;;;;;;1.60;0.40;;;;;;;;;;5127493;28;20187;-65
2022/02/07 03:51:14;;;;;;;1.60;0.63;;;4.60;1.00;;;;;;5124923;27;20545;-65
2022/02/07 03:53:40;;;;;;;0.40;0.40;;;4.60;1.00;;;;;;5109649;28;20439;-65
2022/02/07 03:56:06;;;;;;;1.33;0.87;;;4.60;1.00;;;;;;5128623;27;20242;-65
2022/02/07 03:58:32;;;;;;;2.53;0.80;;;4.50;1.00;;;;;;5132673;27;20177;-64
2022/02/07 04:00:58;;;;;;;1.30;0.87;;;4.50;1.00;;;;;;5126759;27;20439;-64
2022/02/07 04:03:28;;;;;;;1.10;0.67;;;4.60;1.00;;;;;;5129715;27;20265;-65
2022/02/07 04:06:00;;;;;;;1.00;0.70;;;2.20;1.00;;;;;;5110451;27;20425;-65
2022/02/07 04:08:39;;;;;;;2.23;0.73;;;4.60;1.00;;;;;;5125434;27;20453;-64
2022/02/07 04:11:19;;;;;;;4.10;1.10;;;4.60;1.00;;;;;;5123356;27;20480;-64
2022/02/07 04:13:50;;;;;;;1.10;0.63;;;4.50;1.00;;;;;;5127891;27;20454;-64
2022/02/07 04:16:16;;;;;;;1.70;1.00;;;4.60;1.00;;;;;;5123642;27;20562;-64
2022/02/07 04:21:20;;;;;;;2.50;0.73;;;4.60;1.00;;;;;;5127452;27;20174;-64
2022/02/07 04:23:45;;;;;;;3.07;0.80;;;4.60;1.00;;;;;;5131694;27;20993;-64
2022/02/07 04:26:11;;;;;;;2.97;0.93;;;4.60;1.00;;;;;;5122543;27;20192;-64
2022/02/07 04:28:36;;;;;;;3.07;0.87;;;4.60;1.00;;;;;;5129592;27;20185;-63
2022/02/07 04:31:02;;;;;;;0.93;0.80;;;4.60;1.00;;;;;;5127079;27;20239;-63
2022/02/07 04:33:28;;;;;;;2.93;1.03;;;4.70;1.00;;;;;;5128296;27;20268;-64
2022/02/07 04:35:53;;;;;;;3.60;0.80;;;4.70;1.00;;;;;;5129232;27;20558;-63
2022/02/07 04:38:19;;;;;;;5.00;0.73;;;4.70;1.00;;;;;;5127462;27;20177;-64
2022/02/07 04:40:44;;;;;;;5.13;1.17;;;4.70;1.00;;;;;;5127012;27;20249;-64
2022/02/07 04:43:13;;;;;;;5.50;1.83;;;4.70;1.00;;;;;;5129920;27;20257;-63
2022/02/07 04:48:29;;;;;;;2.20;0.50;;;4.60;1.00;;;;;;5127411;27;20944;-63
2022/02/07 04:53:54;;;;;;;5.13;1.03;;;;;;;;;;5130148;27;20530;-64
2022/02/07 05:01:32;;;;;;;4.43;1.30;;;4.70;1.00;;;;;;5127212;27;20541;-63
2022/02/07 05:04:05;;;;;;;2.20;1.03;;;4.60;1.00;;;;;;5111732;27;20595;-63
2022/02/07 05:15:00;;;;;;;2.77;0.83;;;4.60;1.00;;;;;;5119664;27;20503;-63
2022/02/07 05:17:26;;;;;;;2.83;0.80;;;4.60;1.00;;;;;;5129146;27;20792;-63
2022/02/07 05:19:51;;;;;;;1.80;1.10;;;4.60;1.00;;;;;;5130210;27;20225;-63
2022/02/07 05:22:17;;;;;;;1.53;1.00;;;4.50;1.00;;;;;;5098666;27;20475;-63
2022/02/07 05:24:43;;;;;;;3.77;0.97;;;4.50;1.00;;;;;;5122728;27;20290;-63
2022/02/07 05:27:09;;;;;;;2.93;0.77;;;;;;;;;;5130079;27;20262;-63
2022/02/07 05:29:34;;;;;;;3.20;1.10;;;4.60;1.00;;;;;;5124994;27;20213;-63
2022/02/07 05:32:02;;;;;;;1.40;0.67;;;4.60;1.00;;;;;;5118710;27;20446;-64
2022/02/07 05:34:27;;;;;;;1.17;0.90;;;4.60;1.00;;;;;;5123091;27;20234;-63
2022/02/07 05:36:56;;;;;;;1.60;1.17;;;4.70;1.00;;;;;;5124929;27;20447;-63
2022/02/07 05:39:21;;;;;;;3.47;1.60;;;4.60;1.00;;;;;;5120592;27;20191;-63
2022/02/07 05:41:47;;;;;;;1.13;0.67;;;;;;;;;;5126363;27;20995;-62
2022/02/07 05:44:14;;;;;;;3.70;1.00;;;4.60;1.00;;;;;;5107382;27;20659;-62
2022/02/07 05:46:39;;;;;;;1.00;0.80;;;4.60;1.00;;;;;;5109905;27;20508;-62
2022/02/07 05:49:05;;;;;;;1.37;0.80;;;4.60;1.00;;;;;;5109262;27;20454;-62
2022/02/07 05:51:31;;;;;;;4.60;1.03;;;4.60;1.00;;;;;;5108074;27;20239;-62
2022/02/07 05:53:57;;;;;;;3.10;1.30;;;4.70;1.00;;;;;;5117352;27;20220;-63
2022/02/07 05:56:22;;;;;;;3.87;1.67;;;4.80;1.00;;;;;;5129924;27;20521;-63
2022/02/07 05:58:48;;;;;;;1.73;0.90;;;4.60;1.00;;;;;;5109024;27;20515;-62
2022/02/07 06:01:13;;;;;;;3.13;0.90;;;4.60;1.00;;;;;;5127524;27;20196;-62
2022/02/07 06:03:39;;;;;;;5.33;1.20;;;4.60;1.00;;;;;;5128727;27;20268;-62
2022/02/07 06:06:05;;;;;;;2.97;1.33;;;4.60;1.00;;;;;;5127634;27;20532;-63
2022/02/07 06:08:32;;;;;;;2.57;0.90;;;4.70;1.00;;;;;;5123859;27;20215;-63
2022/02/07 06:11:00;;;;;;;1.77;0.80;;;4.70;1.00;;;;;;5127829;27;21190;-63
2022/02/07 06:13:26;;;;;;;3.33;1.50;;;;;;;;;;5124266;27;20500;-62
2022/02/07 06:15:52;;;;;;;3.33;1.37;;;4.80;1.00;;;;;;5128664;27;20462;-63
2022/02/07 06:18:19;;;;;;;5.80;1.50;;;4.80;1.00;;;;;;5126552;27;20439;-63
2022/02/07 06:20:47;;;;;;;3.20;0.73;;;4.80;1.00;;;;;;5126634;27;20169;-63
2022/02/07 06:23:12;;;;;;;2.70;1.00;;;4.80;1.00;;;;;;5124544;27;20452;-63
2022/02/07 06:25:38;;;;;;;6.53;1.40;;;4.80;1.00;;;;;;5126619;27;20450;-63
2022/02/07 06:28:04;;;;;;;5.43;0.93;;;4.60;1.00;;;;;;5110274;27;20190;-62
2022/02/07 06:30:29;;;;;;;3.27;1.50;;;4.60;1.00;;;;;;5125141;27;20191;-62
2022/02/07 06:32:55;;;;;;;2.63;0.60;;;4.70;1.00;;;;;;5128169;27;20606;-63
2022/02/07 06:35:21;;;;;;;2.80;0.70;;;;;;;;;;5127580;27;20197;-62
2022/02/07 06:37:46;;;;;;;1.87;1.30;;;4.60;1.00;;;;;;5127650;27;20173;-63
2022/02/07 06:40:12;;;;;;;2.60;0.87;;;4.60;1.00;;;;;;5126547;27;20773;-62
2022/02/07 06:42:37;;;;;;;5.23;0.80;;;4.50;1.00;;;;;;5121417;27;20231;-62
2022/02/07 06:45:04;;;;;;;2.60;0.87;;;4.40;1.00;;;;;;5126864;27;20186;-62
2022/02/07 06:47:31;;;;;;;4.20;1.20;;;4.60;1.00;;;;;;5121192;28;20191;-61
2022/02/07 06:49:56;;;;;;;2.27;1.07;;;4.60;1.00;;;;;;5123147;27;20443;-62
2022/02/07 06:52:22;;;;;;;2.93;0.90;;;4.60;1.00;;;;;;5124042;28;20442;-61
2022/02/07 06:54:48;;;;;;;8.43;1.30;;;4.60;1.00;;;;;;5126139;28;20667;-61
2022/02/07 06:57:15;;;;;;;2.37;0.87;;;4.80;1.00;;;;;;5124881;28;20185;-61
2022/02/07 06:59:42;;;;;;;3.10;0.80;;;4.70;1.00;;;;;;5118183;28;20177;-61
2022/02/07 07:02:11;;;;;;;2.20;1.50;;;4.70;1.00;;;;;;5123518;27;20435;-63
2022/02/07 07:04:37;;;;;;;3.13;1.10;;;;;;;;;;5125488;27;20495;-63
2022/02/07 07:07:03;;;;;;;6.63;0.90;;;4.60;1.00;;;;;;5128723;27;20792;-62
2022/02/07 07:09:30;;;;;;;2.80;1.17;;;4.50;1.00;;;;;;5123512;28;20438;-63
2022/02/07 07:12:02;;;;;;;5.83;1.73;;;4.50;1.00;;;;;;5129531;28;20821;-63
2022/02/07 07:14:31;;;;;;;2.80;0.83;;;4.50;1.00;;;;;;5126008;28;20466;-63
2022/02/07 07:16:58;;;;;;;4.30;1.53;;;4.50;1.00;;;;;;5122842;28;20442;-63
2022/02/07 07:19:26;;;;;;;6.47;1.67;;;4.50;1.00;;;;;;5128666;28;20940;-63
2022/02/07 07:21:53;;;;;;;2.60;1.13;;;4.50;1.00;;;;;;5121960;28;21002;-61
2022/02/07 07:24:18;;;;;;;4.90;1.20;;;4.60;1.00;;;;;;5129631;27;20434;-63
2022/02/07 07:26:45;;;;;;;2.90;1.53;;;4.60;1.00;;;;;;5119323;28;20452;-62
2022/02/07 07:29:15;;;;;;;5.27;0.97;;;4.60;1.00;;;;;;5123638;27;20190;-61
2022/02/07 07:31:46;;;;;;;4.37;1.47;;;4.70;1.00;;;;;;5130747;27;20458;-61
2022/02/07 07:34:16;;;;;;;2.27;1.30;;;4.70;1.00;;;;;;5130928;27;20458;-62
2022/02/07 07:36:42;;;;;;;3.23;1.03;;;4.90;1.00;;;;;;5125099;27;20876;-62
2022/02/07 07:39:08;;;;;;;1.40;0.93;;;4.90;1.00;;;;;;5113406;27;20430;-61
2022/02/07 07:41:33;;;;;;;2.40;1.10;;;4.80;1.00;;;;;;5129603;27;20501;-62
2022/02/07 07:43:59;;;;;;;2.67;1.03;;;4.80;1.00;;;;;;5111977;27;20178;-62
2022/02/07 07:46:29;;;;;;;3.87;1.20;;;4.80;1.00;;;;;;5131429;27;20743;-62
2022/02/07 07:49:01;;;;;;;9.53;1.37;;;4.80;1.00;;;;;;5129090;27;20623;-62
2022/02/07 07:51:39;;;;;;;4.93;1.20;;;;;;;;;;5131547;27;20447;-63
2022/02/07 08:02:23;;;;;;;2.07;0.90;;;;;;;;;;5123418;27;20534;-62
2022/02/07 08:04:49;;;;;;;3.93;1.33;;;;;;;;;;5129462;27;20468;-61
2022/02/07 08:07:20;;;;;;;3.03;0.80;;;4.70;1.00;;;;;;5108724;27;20950;-63
2022/02/07 08:12:13;;;;;;;4.87;1.83;;;4.70;1.00;;;;;;5125703;27;21021;-61
2022/02/07 08:14:39;;;;;;;2.17;1.23;;;4.80;1.00;;;;;;5113382;27;20430;-61
2022/02/07 08:17:06;;;;;;;4.07;1.47;;;4.60;1.00;;;;;;5125521;27;20993;-61
2022/02/07 08:19:33;;;;;;;3.60;1.30;;;;;;;;;;5126190;27;20255;-60
2022/02/07 08:22:00;;;;;;;3.27;1.17;;;4.80;1.00;;;;;;5127456;27;20443;-61
2022/02/07 08:24:25;;;;;;;3.33;1.23;;;4.70;1.00;;;;;;5130443;27;20526;-62
2022/02/07 08:26:53;;;;;;;1.87;1.40;;;4.70;1.00;;;;;;5126632;27;20846;-62
2022/02/07 08:29:19;;;;;;;2.43;1.40;;;4.80;1.00;;;;;;5128693;27;20204;-62
2022/02/07 08:31:45;;;;;;;1.77;1.40;;;4.80;1.00;;;;;;5108687;27;20436;-61
2022/02/07 08:34:11;;;;;;;4.67;1.47;;;4.80;1.00;;;;;;5127808;27;20410;-63
2022/02/07 08:36:36;;;;;;;1.73;1.63;;;4.80;1.00;;;;;;5128744;27;20224;-62
2022/02/07 08:39:03;;;;;;;1.27;1.10;;;4.70;1.00;;;;;;5131330;27;20297;-62
2022/02/07 08:41:29;;;;;;;2.30;1.50;;;4.60;1.00;;;;;;5125267;27;20190;-62
2022/02/07 08:43:55;;;;;;;3.00;1.50;;;;;;;;;;5129327;27;20435;-62
2022/02/07 08:46:21;;;;;;;5.37;1.90;;;;;;;;;;5127894;27;20251;-62
2022/02/07 08:48:48;;;;;;;1.30;1.20;;;4.60;1.00;;;;;;5126367;27;20449;-62
2022/02/07 08:51:15;;;;;;;1.60;1.50;;;4.70;1.00;;;;;;5110293;27;20520;-61
2022/02/07 08:53:43;;;;;;;2.57;1.60;;;4.60;1.00;;;;;;5128956;27;20918;-61
2022/02/07 08:56:10;;;;;;;3.73;1.80;;;4.60;1.00;;;;;;5125557;27;20850;-62
2022/02/07 08:58:39;;;;;;;2.33;1.47;;;4.50;1.00;;;;;;5129873;27;20845;-61
2022/02/07 09:01:15;;;;;;;3.00;1.80;;;4.60;1.00;;;;;;5125750;27;20446;-61
2022/02/07 09:04:06;;;;;;;1.90;1.13;;;4.70;1.00;;;;;;5106188;28;20952;-62
2022/02/07 09:06:33;;;;;;;1.30;1.20;;;4.60;1.00;;;;;;5127938;27;20473;-62
2022/02/07 09:09:15;;;;;;;1.10;1.10;;;4.60;1.00;;;;;;5123832;27;20435;-62
2022/02/07 09:11:41;;;;;;;1.17;1.03;;;4.70;1.00;;;;;;5126046;27;20458;-61
2022/02/07 09:14:20;;;;;;;0.87;0.87;;;4.80;1.00;;;;;;5110091;27;20462;-62
2022/02/07 09:16:46;;;;;;;1.40;1.00;;;4.70;1.00;;;;;;5129994;27;20466;-61
2022/02/07 09:19:12;;;;;;;3.60;1.20;;;4.70;1.00;;;;;;5126058;27;20432;-61
2022/02/07 09:21:38;;;;;;;1.67;1.30;;;;;;;;;;5123474;27;20631;-61
2022/02/07 09:24:04;;;;;;;3.57;1.37;;;4.70;1.00;;;;;;5123205;27;20443;-61
2022/02/07 09:26:30;;;;;;;3.53;1.50;;;4.80;1.00;;;;;;5131007;27;20450;-61
2022/02/07 09:28:56;;;;;;;2.23;1.20;;;4.90;1.00;;;;;;5127130;27;20535;-61
2022/02/07 09:31:22;;;;;;;3.53;1.90;;;4.80;1.00;;;;;;5129926;27;20570;-62
2022/02/07 09:33:48;;;;;;;3.27;1.00;;;;;;;;;;5108730;27;20446;-61
2022/02/07 09:36:15;;;;;;;1.23;1.13;;;4.80;1.00;;;;;;5130949;27;20197;-62
2022/02/07 09:38:42;;;;;;;1.93;1.43;;;4.90;1.00;;;;;;5130404;27;20442;-61
2022/02/07 09:41:08;;;;;;;4.80;1.57;;;5.10;1.00;;;;;;5128764;27;20435;-62
2022/02/07 09:43:41;;;;;;;3.83;1.70;;;5.00;1.00;;;;;;5129760;27;20988;-62
2022/02/07 09:46:10;;;;;;;1.57;1.10;;;4.90;1.00;;;;;;5130595;27;20316;-61
2022/02/07 09:48:40;;;;;;;2.40;1.60;;;4.90;1.00;;;;;;5111042;27;20519;-62
2022/02/07 09:51:10;;;;;;;1.50;1.40;;;5.20;1.00;;;;;;5111060;27;20849;-61
2022/02/07 09:53:36;;;;;;;2.13;1.60;;;5.20;1.00;;;;;;5122910;27;20450;-61
2022/02/07 09:56:06;;;;;;;1.83;1.40;;;5.20;1.00;;;;;;5127189;27;20475;-61
2022/02/07 09:58:34;;;;;;;1.70;1.47;;;5.30;1.00;;;;;;5111627;27;20495;-63
2022/02/07 10:01:02;;;;;;;2.20;1.27;;;5.40;1.00;;;;;;5130065;27;20447;-62
2022/02/07 10:03:42;;;;;;;3.13;1.83;;;5.40;1.00;;;;;;5129641;27;20443;-62
2022/02/07 10:06:17;;;;;;;1.60;1.27;;;5.40;1.00;;;;;;5131323;27;20450;-62
2022/02/07 10:19:24;;;;;;;3.40;1.43;;;4.90;1.00;;;;;;5120870;27;20442;-63
2022/02/07 10:41:26;;;;;;;5.03;2.20;;;5.50;1.00;;;;;;5125981;27;20466;-62
2022/02/07 10:44:08;;;;;;;7.63;1.80;;;;;;;;;;5129623;27;20822;-62
2022/02/07 10:46:35;;;;;;;6.93;1.80;;;5.60;1.00;;;;;;5123872;27;20466;-63
2022/02/07 10:49:08;;;;;;;13.53;2.30;;;5.60;1.00;;;;;;5125374;27;20964;-63
2022/02/07 10:51:36;;;;;;;2.73;1.57;;;3.80;1.00;;;;;;5119748;28;20438;-63
2022/02/07 10:54:12;;;;;;;5.20;1.50;;;5.90;1.00;;;;;;5123942;27;20441;-63
2022/02/07 10:56:46;;;;;;;3.27;1.37;;;6.00;1.00;;;;;;5120765;27;20479;-63
2022/02/07 10:59:15;;;;;;;8.80;2.27;;;6.20;1.00;;;;;;5127139;28;20928;-63
2022/02/07 11:04:20;;;;;;;4.73;1.90;;;6.10;1.00;;;;;;5122894;27;20441;-62
2022/02/07 11:06:49;;;;;;;3.63;1.70;;;;;;;;;;5127914;27;20521;-62
2022/02/07 11:10:05;;;;;;;5.90;1.90;;;6.10;1.00;;;;;;5128531;27;20504;-62
2022/02/07 11:12:18;;;;;;;8.13;2.57;;;6.30;1.00;;;;;;5126748;27;20480;-62
2022/02/07 11:15:06;;;;;;;5.03;2.57;;;6.40;1.00;;;;;;5110138;27;20537;-63
2022/02/07 11:20:55;;;;;;;10.77;2.07;;;6.80;1.00;;;;;;5133484;27;20461;-62
2022/02/07 11:23:31;;;;;;;9.23;2.07;;;;;;;;;;5121462;27;20502;-62
2022/02/07 11:26:03;;;;;;;4.43;1.93;;;6.80;1.00;;;;;;5114784;27;20437;-62
2022/02/07 11:28:38;;;;;;;7.27;2.17;;;6.90;1.00;;;;;;5129274;27;20894;-63
2022/02/07 11:31:05;;;;;;;8.73;2.60;;;7.10;1.00;;;;;;5130432;27;20839;-62
2022/02/07 11:33:36;;;;;;;2.73;1.60;;;7.10;1.00;;;;;;5127137;27;20439;-63
2022/02/07 11:36:04;;;;;;;7.70;1.90;;;7.20;1.00;;;;;;5114328;27;20462;-63
2022/02/07 11:38:30;;;;;;;3.53;1.90;;;7.20;1.00;;;;;;5131160;27;20431;-63
2022/02/07 11:40:55;;;;;;;5.97;2.20;;;7.00;1.00;;;;;;5131646;27;20438;-63
2022/02/07 11:43:24;;;;;;;5.37;2.27;;;7.10;1.00;;;;;;5112685;27;20462;-62
2022/02/07 11:46:05;;;;;;;7.60;1.97;;;7.20;1.00;;;;;;5125419;27;20261;-63
2022/02/07 11:48:51;;;;;;;7.70;1.70;;;7.10;1.00;;;;;;5132071;27;20471;-62
2022/02/07 11:51:23;;;;;;;5.03;2.00;;;7.10;1.00;;;;;;5129302;27;20488;-63
2022/02/07 11:54:02;;;;;;;2.20;1.60;;;7.00;1.00;;;;;;5131724;27;20450;-62
2022/02/07 11:56:51;;;;;;;8.57;1.87;;;7.10;1.00;;;;;;5126694;27;20989;-63
2022/02/07 12:02:15;;;;;;;12.13;2.80;;;7.30;1.00;;;;;;5129584;27;20509;-63
2022/02/07 12:04:48;;;;;;;3.00;1.80;;;7.50;1.00;;;;;;5131528;27;20443;-62
2022/02/07 12:07:27;;;;;;;8.97;3.00;;;7.50;1.00;;;;;;5129499;27;20443;-63
2022/02/07 12:10:05;;;;;;;5.23;1.50;;;7.60;1.00;;;;;;5130277;27;20445;-63
2022/02/07 12:12:52;;;;;;;6.63;1.97;;;7.70;1.00;;;;;;5130022;27;20431;-63
2022/02/07 12:15:21;;;;;;;7.43;1.97;;;7.80;1.00;;;;;;5126956;27;20469;-62
2022/02/07 12:17:58;;;;;;;6.40;1.80;;;7.80;1.00;;;;;;5129498;27;20435;-62
2022/02/07 12:20:30;;;;;;;8.47;1.90;;;7.90;1.00;;;;;;5128584;27;21531;-62
2022/02/07 12:23:10;;;;;;;15.90;2.90;;;8.00;1.00;;;;;;5131000;27;20435;-63
2022/02/07 12:25:44;;;;;;;3.67;2.03;;;7.90;1.00;;;;;;5129627;27;20446;-63
2022/02/07 12:28:16;;;;;;;6.60;2.13;;;7.70;1.00;;;;;;5131901;27;20443;-62
2022/02/07 12:33:39;;;;;;;7.17;3.33;;;7.80;1.00;;;;;;5097303;27;20439;-62
2022/02/07 12:36:07;;;;;;;6.17;1.67;;;7.80;1.00;;;;;;5128098;27;20477;-62
2022/02/07 12:38:37;;;;;;;7.63;1.50;;;7.80;1.00;;;;;;5107675;27;20442;-61
2022/02/07 12:41:05;;;;;;;6.97;1.67;;;8.00;1.00;;;;;;5130208;27;20450;-62
2022/02/07 12:43:34;;;;;;;11.53;2.50;;;8.00;1.00;;;;;;5125419;27;20437;-61
2022/02/07 12:46:01;;;;;;;5.10;1.67;;;7.60;1.00;;;;;;5129605;27;20528;-63
2022/02/07 12:48:32;;;;;;;6.90;2.43;;;7.60;1.00;;;;;;5127947;27;20442;-62
2022/02/07 12:50:58;;;;;;;7.07;1.83;;;;;;;;;;5124022;27;20520;-62
2022/02/07 12:53:25;;;;;;;5.77;1.73;;;;;;;;;;5126877;27;20473;-61
2022/02/07 12:55:56;;;;;;;8.77;1.90;;;7.60;1.00;;;;;;5128019;27;21026;-57
2022/02/07 12:58:28;;;;;;;8.97;2.27;;;;;;;;;;5101910;27;20593;-63
2022/02/07 13:00:54;;;;;;;8.80;2.03;;;8.00;1.00;;;;;;5131152;27;20954;-62
2022/02/07 13:03:20;;;;;;;8.47;1.97;;;8.00;1.00;;;;;;5130950;27;20950;-62
2022/02/07 13:05:47;;;;;;;9.97;2.20;;;8.20;1.00;;;;;;5130584;27;20442;-63
2022/02/07 13:08:17;;;;;;;4.53;2.30;;;8.10;1.00;;;;;;5129300;27;20530;-61
2022/02/07 13:10:54;;;;;;;4.47;1.73;;;8.00;1.00;;;;;;5127380;27;20912;-61
2022/02/07 13:13:38;;;;;;;7.43;2.13;;;;;;;;;;5124689;27;20565;-62
2022/02/07 13:16:05;;;;;;;5.67;2.03;;;;;;;;;;5125803;27;20462;-61
2022/02/07 13:18:34;;;;;;;4.73;1.63;;;7.70;1.00;;;;;;5132421;27;20434;-62
2022/02/07 13:21:10;;;;;;;5.83;1.73;;;7.80;1.00;;;;;;5131783;27;20435;-62
2022/02/07 13:23:36;;;;;;;7.63;1.90;;;7.90;1.00;;;;;;5131014;27;20932;-61
2022/02/07 13:26:04;;;;;;;8.70;1.67;;;7.90;1.00;;;;;;5110875;27;20569;-61
2022/02/07 13:28:30;;;;;;;7.30;1.90;;;8.10;1.00;;;;;;5108328;27;20185;-62
2022/02/07 13:30:58;;;;;;;6.03;1.80;;;8.10;1.00;;;;;;5111358;27;20447;-61
2022/02/07 13:33:24;;;;;;;5.53;1.30;;;;;;;;;;5125593;27;20949;-62
2022/02/07 13:35:55;;;;;;;13.97;2.23;;;8.10;1.00;;;;;;5132095;27;20490;-62
2022/02/07 13:38:22;;;;;;;8.87;2.37;;;7.90;1.00;;;;;;5130583;27;20442;-61
2022/02/07 13:40:59;;;;;;;8.33;2.70;;;7.90;1.00;;;;;;5130532;27;20458;-62
2022/02/07 13:43:29;;;;;;;12.23;3.20;;;7.90;1.00;;;;;;5109337;27;21034;-62
2022/02/07 13:46:04;;;;;;;7.77;2.60;;;7.70;1.00;;;;;;5125646;27;20475;-62
2022/02/07 13:48:32;;;;;;;10.40;2.80;;;7.30;1.00;;;;;;5128843;27;20981;-63
2022/02/07 13:51:00;;;;;;;7.83;2.50;;;6.30;1.00;;;;;;5133221;27;20451;-67
2022/02/07 13:53:27;;;;;;;8.47;1.80;;;5.70;1.00;;;;;;5133568;27;20581;-69
2022/02/07 13:55:54;;;;;;;6.43;1.70;;;;;;;;;;5133068;27;20502;-69
2022/02/07 13:58:40;;;;;;;2.10;1.20;;;5.20;1.00;;;;;;5132028;27;20431;-69
2022/02/07 14:01:10;;;;;;;12.67;1.93;;;5.20;1.00;;;;;;5134374;27;20457;-67
2022/02/07 14:03:40;;;;;;;1.40;0.70;;;4.70;1.00;;;;;;5126878;27;20470;-68
2022/02/07 14:06:08;;;;;;;4.50;1.57;;;5.00;1.00;;;;;;5126531;27;20521;-69
2022/02/07 14:08:40;;;;;;;2.17;0.80;;;4.60;1.00;;;;;;5106144;27;20475;-71
2022/02/07 14:11:08;;;;;;;2.20;0.63;;;4.60;1.00;;;;;;5110334;27;20442;-71
2022/02/07 14:13:35;;;;;;;1.63;0.60;;;4.40;1.00;;;;;;5126624;27;20459;-72
2022/02/07 14:16:02;;;;;;;1.40;0.40;;;4.50;1.00;;;;;;5126079;27;20578;-71
2022/02/07 14:18:30;;;;;;;2.13;1.00;;;4.50;1.00;;;;;;5111004;27;20440;-72
2022/02/07 14:20:56;;;;;;;1.53;0.50;;;4.70;1.00;;;;;;5126071;27;20853;-72
2022/02/07 14:23:22;;;;;;;1.13;0.43;;;;;;;;;;5124555;27;20476;-72
2022/02/07 14:25:53;;;;;;;2.10;0.90;;;5.00;1.00;;;;;;5129275;27;20216;-72
2022/02/07 14:28:19;;;;;;;2.67;0.80;;;5.10;1.00;;;;;;5106240;27;20439;-73
2022/02/07 14:30:45;;;;;;;5.50;1.03;;;5.20;1.00;;;;;;5122851;27;20443;-73
2022/02/07 14:33:11;;;;;;;1.53;0.90;;;;;;;;;;5128143;27;20431;-72
2022/02/07 14:35:37;;;;;;;4.53;1.17;;;5.40;1.00;;;;;;5129000;27;20458;-73
2022/02/07 14:38:04;;;;;;;3.60;1.37;;;5.50;1.00;;;;;;5125509;27;20997;-74
2022/02/07 14:40:31;;;;;;;3.63;1.40;;;5.50;1.00;;;;;;5128853;27;20229;-75
2022/02/07 14:42:58;;;;;;;3.60;1.27;;;5.60;1.00;;;;;;5113796;27;20427;-73
2022/02/07 14:45:30;;;;;;;6.10;1.73;;;5.60;1.00;;;;;;5133280;27;20467;-71
2022/02/07 14:48:01;;;;;;;3.90;1.17;;;5.50;1.00;;;;;;5133657;27;20458;-72
2022/02/07 14:50:27;;;;;;;4.57;1.67;;;;;;;;;;5129874;27;20848;-72
2022/02/07 14:52:53;;;;;;;6.83;1.27;;;5.90;1.00;;;;;;5131420;27;20439;-71
2022/02/07 14:55:21;;;;;;;10.17;1.77;;;6.10;1.00;;;;;;5129453;28;20458;-70
2022/02/07 14:57:47;;;;;;;5.90;1.23;;;6.10;1.00;;;;;;5127526;28;20451;-69
2022/02/07 15:00:23;;;;;;;5.40;1.50;;;6.10;1.00;;;;;;5126881;28;20449;-69
2022/02/07 15:02:48;;;;;;;6.40;2.20;;;6.10;1.00;;;;;;5130794;28;20919;-67
2022/02/07 15:05:14;;;;;;;7.90;1.70;;;6.20;1.00;;;;;;5128588;28;20456;-70
2022/02/07 15:07:40;;;;;;;3.63;1.30;;;6.30;1.00;;;;;;5126172;28;20184;-66
2022/02/07 15:10:08;;;;;;;4.83;1.60;;;6.40;1.00;;;;;;5128699;28;20920;-66
2022/02/07 15:12:34;;;;;;;8.57;2.17;;;6.40;1.00;;;;;;5129703;28;20445;-66
2022/02/07 15:15:01;;;;;;;10.70;1.90;;;6.40;1.00;;;;;;5107345;28;20458;-65
2022/02/07 15:17:28;;;;;;;7.37;2.03;;;;;;;;;;5127235;28;20426;-67
2022/02/07 15:20:03;;;;;;;8.30;2.40;;;6.40;1.00;;;;;;5124655;28;20504;-66
2022/02/07 15:22:29;;;;;;;9.33;2.37;;;6.40;1.00;;;;;;5129966;28;20434;-67
2022/02/07 15:24:59;;;;;;;6.50;1.47;;;6.40;1.00;;;;;;5128474;28;20514;-66
2022/02/07 15:27:26;;;;;;;8.33;1.93;;;6.40;1.00;;;;;;5126979;27;20200;-64
2022/02/07 15:29:53;;;;;;;11.47;2.33;;;6.30;1.00;;;;;;5124472;28;20490;-66
2022/02/07 15:32:28;;;;;;;10.30;3.00;;;6.20;1.00;;;;;;5125354;28;20470;-67
2022/02/07 15:35:00;;;;;;;9.83;2.50;;;6.20;1.00;;;;;;5123595;28;20486;-66
2022/02/07 15:37:27;;;;;;;6.00;2.00;;;6.40;1.00;;;;;;5126623;28;20437;-67
2022/02/07 15:39:53;;;;;;;11.93;2.57;;;;;;;;;;5126486;28;20430;-67
2022/02/07 15:42:20;;;;;;;9.23;1.97;;;6.40;1.00;;;;;;5123884;28;20435;-68
2022/02/07 15:44:47;;;;;;;6.50;2.27;;;6.40;1.00;;;;;;5107547;28;20779;-67